Home > Products > Valid Products > TAF

000
FTUS45 KPUB 011120
TAFALS
TAF
KALS 011120Z 0112/0212 VRB04KT P6SM FEW100
     FM011800 18006KT P6SM VCTS SCT040CB BKN090
     FM012100 21012KT 3SM -TSRA SCT030CB BKN070
     FM020200 18007KT P6SM VCTS FEW040CB BKN090
     FM020500 VRB04KT P6SM BKN090=



000
FTUS45 KPUB 011120
TAFPUB
TAF
KPUB 011120Z 0112/0212 32005KT P6SM FEW200
     FM011700 12006KT P6SM SCT110 SCT200
     FM012200 15010KT P6SM VCTS SCT070CB BKN130
     FM020300 30008KT P6SM SCT070 BKN150
     FM020700 VRB05KT P6SM SCT150=



000
FTUS45 KPUB 011120
TAFCOS
TAF
KCOS 011120Z 0112/0212 VRB05KT P6SM SCT250
     FM011700 16008KT P6SM SCT090 BKN250
     FM012100 18010KT P6SM VCTS SCT070CB BKN110
     FM020200 14006KT P6SM SCT110 BKN200
     FM020600 36006KT P6SM BKN110=



000
FTUS45 KPUB 011120
TAFALS
TAF
KALS 011120Z 0112/0212 VRB04KT P6SM FEW100
     FM011800 18006KT P6SM VCTS SCT040CB BKN090
     FM012100 21012KT 3SM -TSRA SCT030CB BKN070
     FM020200 18007KT P6SM VCTS FEW040CB BKN090
     FM020500 VRB04KT P6SM BKN090=



000
FTUS45 KPUB 011120
TAFCOS
TAF
KCOS 011120Z 0112/0212 VRB05KT P6SM SCT250
     FM011700 16008KT P6SM SCT090 BKN250
     FM012100 18010KT P6SM VCTS SCT070CB BKN110
     FM020200 14006KT P6SM SCT110 BKN200
     FM020600 36006KT P6SM BKN110=



000
FTUS45 KPUB 011120
TAFALS
TAF
KALS 011120Z 0112/0212 VRB04KT P6SM FEW100
     FM011800 18006KT P6SM VCTS SCT040CB BKN090
     FM012100 21012KT 3SM -TSRA SCT030CB BKN070
     FM020200 18007KT P6SM VCTS FEW040CB BKN090
     FM020500 VRB04KT P6SM BKN090=



000
FTUS45 KPUB 011120
TAFPUB
TAF
KPUB 011120Z 0112/0212 32005KT P6SM FEW200
     FM011700 12006KT P6SM SCT110 SCT200
     FM012200 15010KT P6SM VCTS SCT070CB BKN130
     FM020300 30008KT P6SM SCT070 BKN150
     FM020700 VRB05KT P6SM SCT150=



000
FTUS45 KPUB 011120
TAFCOS
TAF
KCOS 011120Z 0112/0212 VRB05KT P6SM SCT250
     FM011700 16008KT P6SM SCT090 BKN250
     FM012100 18010KT P6SM VCTS SCT070CB BKN110
     FM020200 14006KT P6SM SCT110 BKN200
     FM020600 36006KT P6SM BKN110=



000
FTUS45 KPUB 011120
TAFCOS
TAF
KCOS 011120Z 0112/0212 VRB05KT P6SM SCT250
     FM011700 16008KT P6SM SCT090 BKN250
     FM012100 18010KT P6SM VCTS SCT070CB BKN110
     FM020200 14006KT P6SM SCT110 BKN200
     FM020600 36006KT P6SM BKN110=



000
FTUS45 KPUB 011120
TAFPUB
TAF
KPUB 011120Z 0112/0212 32005KT P6SM FEW200
     FM011700 12006KT P6SM SCT110 SCT200
     FM012200 15010KT P6SM VCTS SCT070CB BKN130
     FM020300 30008KT P6SM SCT070 BKN150
     FM020700 VRB05KT P6SM SCT150=



000
FTUS45 KPUB 011120
TAFALS
TAF
KALS 011120Z 0112/0212 VRB04KT P6SM FEW100
     FM011800 18006KT P6SM VCTS SCT040CB BKN090
     FM012100 21012KT 3SM -TSRA SCT030CB BKN070
     FM020200 18007KT P6SM VCTS FEW040CB BKN090
     FM020500 VRB04KT P6SM BKN090=



000
FTUS45 KPUB 011120
TAFPUB
TAF
KPUB 011120Z 0112/0212 32005KT P6SM FEW200
     FM011700 12006KT P6SM SCT110 SCT200
     FM012200 15010KT P6SM VCTS SCT070CB BKN130
     FM020300 30008KT P6SM SCT070 BKN150
     FM020700 VRB05KT P6SM SCT150=



000
FTUS45 KPUB 010543
TAFCOS
TAF
KCOS 010543Z 0106/0206 VRB06KT P6SM FEW070 SCT120 BKN150
     FM011700 17010KT P6SM FEW050 SCT080 BKN120=



000
FTUS45 KPUB 010543
TAFALS
TAF
KALS 010543Z 0106/0206 VRB06KT P6SM FEW050 SCT090 BKN110
     FM011900 20011KT P6SM FEW050 SCT080 BKN120
     FM020300 VRB06KT P6SM FEW050 SCT080 BKN120=



000
FTUS45 KPUB 010543
TAFPUB
TAF
KPUB 010543Z 0106/0206 VRB05KT P6SM FEW080 SCT120 BKN170
     FM011800 10009KT P6SM FEW080 SCT100 BKN140
     FM020400 VRB06KT P6SM FEW070 SCT100 BKN140=



000
FTUS45 KPUB 010543
TAFPUB
TAF
KPUB 010543Z 0106/0206 VRB05KT P6SM FEW080 SCT120 BKN170
     FM011800 10009KT P6SM FEW080 SCT100 BKN140
     FM020400 VRB06KT P6SM FEW070 SCT100 BKN140=



000
FTUS45 KPUB 010543
TAFCOS
TAF
KCOS 010543Z 0106/0206 VRB06KT P6SM FEW070 SCT120 BKN150
     FM011700 17010KT P6SM FEW050 SCT080 BKN120=



000
FTUS45 KPUB 010543
TAFALS
TAF
KALS 010543Z 0106/0206 VRB06KT P6SM FEW050 SCT090 BKN110
     FM011900 20011KT P6SM FEW050 SCT080 BKN120
     FM020300 VRB06KT P6SM FEW050 SCT080 BKN120=



000
FTUS45 KPUB 010543
TAFALS
TAF
KALS 010543Z 0106/0206 VRB06KT P6SM FEW050 SCT090 BKN110
     FM011900 20011KT P6SM FEW050 SCT080 BKN120
     FM020300 VRB06KT P6SM FEW050 SCT080 BKN120=



000
FTUS45 KPUB 010543
TAFCOS
TAF
KCOS 010543Z 0106/0206 VRB06KT P6SM FEW070 SCT120 BKN150
     FM011700 17010KT P6SM FEW050 SCT080 BKN120=



000
FTUS45 KPUB 010543
TAFPUB
TAF
KPUB 010543Z 0106/0206 VRB05KT P6SM FEW080 SCT120 BKN170
     FM011800 10009KT P6SM FEW080 SCT100 BKN140
     FM020400 VRB06KT P6SM FEW070 SCT100 BKN140=



000
FTUS45 KPUB 010543
TAFCOS
TAF
KCOS 010543Z 0106/0206 VRB06KT P6SM FEW070 SCT120 BKN150
     FM011700 17010KT P6SM FEW050 SCT080 BKN120=



000
FTUS45 KPUB 010543
TAFALS
TAF
KALS 010543Z 0106/0206 VRB06KT P6SM FEW050 SCT090 BKN110
     FM011900 20011KT P6SM FEW050 SCT080 BKN120
     FM020300 VRB06KT P6SM FEW050 SCT080 BKN120=



000
FTUS45 KPUB 010543
TAFPUB
TAF
KPUB 010543Z 0106/0206 VRB05KT P6SM FEW080 SCT120 BKN170
     FM011800 10009KT P6SM FEW080 SCT100 BKN140
     FM020400 VRB06KT P6SM FEW070 SCT100 BKN140=



000
FTUS45 KPUB 010140 AAA
TAFCOS
TAF AMD
KCOS 010140Z 0102/0124 31009KT P6SM VCTS FEW050 SCT070CB BKN120
     FM010300 13008KT P6SM SCT040 BKN080
     FM010500 VRB06KT P6SM SCT070 SCT120
     FM011700 10011KT P6SM FEW060 SCT080 SCT120=



000
FTUS45 KPUB 010137 AAA
TAFALS
TAF AMD
KALS 010137Z 0102/0124 19011KT P6SM FEW060 SCT090 BKN110
     FM010300 VRB05KT P6SM SCT060 BKN080
     FM010500 VRB06KT P6SM FEW050 SCT150=



000
FTUS45 KPUB 010052 AAA
TAFPUB
TAF AMD
KPUB 010052Z 0101/0124 12010G20KT P6SM FEW060 SCT090 BKN120
      TEMPO 0101/0103 VRB25G35KT 5SM TSRA BKN060CB
     FM010300 VRB06KT P6SM FEW060 SCT120
     FM011800 10009KT P6SM FEW080 SCT100 SCT130=



000
FTUS45 KPUB 010052 AAA
TAFPUB
TAF AMD
KPUB 010052Z 0101/0124 12010G20KT P6SM FEW060 SCT090 BKN120
      TEMPO 0101/0103 VRB25G35KT 5SM TSRA BKN060CB
     FM010300 VRB06KT P6SM FEW060 SCT120
     FM011800 10009KT P6SM FEW080 SCT100 SCT130=



000
FTUS45 KPUB 312341
TAFCOS
TAF
KCOS 312341Z 0100/0124 09010G20KT P6SM VCTS FEW050 SCT070CB BKN120
     FM010300 13008KT P6SM SCT040 BKN080
     FM010500 VRB06KT P6SM SCT070 SCT120
     FM011700 10011KT P6SM FEW060 SCT080 SCT120=



000
FTUS45 KPUB 312341
TAFALS
TAF
KALS 312341Z 0100/0124 17015G25KT P6SM VCTS SCT060CB BKN100
      TEMPO 0100/0103 VRB20G30KT 5SM -TSRA BKN060CB
     FM010300 VRB05KT P6SM SCT060 BKN080
     FM010500 VRB06KT P6SM FEW050 SCT150=



000
FTUS45 KPUB 312341
TAFPUB
TAF
KPUB 312341Z 0100/0124 14010G20KT P6SM FEW060 SCT090 BKN120
     FM010300 VRB06KT P6SM FEW060 SCT120
     FM011800 10009KT P6SM FEW080 SCT100 SCT130=



000
FTUS45 KPUB 312341
TAFCOS
TAF
KCOS 312341Z 0100/0124 09010G20KT P6SM VCTS FEW050 SCT070CB BKN120
     FM010300 13008KT P6SM SCT040 BKN080
     FM010500 VRB06KT P6SM SCT070 SCT120
     FM011700 10011KT P6SM FEW060 SCT080 SCT120=



000
FTUS45 KPUB 312341
TAFPUB
TAF
KPUB 312341Z 0100/0124 14010G20KT P6SM FEW060 SCT090 BKN120
     FM010300 VRB06KT P6SM FEW060 SCT120
     FM011800 10009KT P6SM FEW080 SCT100 SCT130=



000
FTUS45 KPUB 312341
TAFALS
TAF
KALS 312341Z 0100/0124 17015G25KT P6SM VCTS SCT060CB BKN100
      TEMPO 0100/0103 VRB20G30KT 5SM -TSRA BKN060CB
     FM010300 VRB05KT P6SM SCT060 BKN080
     FM010500 VRB06KT P6SM FEW050 SCT150=



000
FTUS45 KPUB 312155 AAB
TAFPUB
TAF AMD
KPUB 312155Z 3122/0118 12012KT P6SM SCT060 BKN120
     FM010300 VRB06KT P6SM FEW060 SCT120=



000
FTUS45 KPUB 312155 AAB
TAFPUB
TAF AMD
KPUB 312155Z 3122/0118 12012KT P6SM SCT060 BKN120
     FM010300 VRB06KT P6SM FEW060 SCT120=



000
FTUS45 KPUB 312153 AAA
TAFCOS
TAF AMD
KCOS 312153Z 3122/0118 16012KT P6SM SCT050 BKN100
     FM010200 13008KT P6SM SCT040 BKN080
     FM010500 VRB06KT P6SM SCT070 SCT120=



000
FTUS45 KPUB 312153 AAA
TAFCOS
TAF AMD
KCOS 312153Z 3122/0118 16012KT P6SM SCT050 BKN100
     FM010200 13008KT P6SM SCT040 BKN080
     FM010500 VRB06KT P6SM SCT070 SCT120=



000
FTUS45 KPUB 311720
TAFCOS
TAF
KCOS 311720Z 3118/0118 15007KT P6SM FEW060 SCT100
     FM312100 16012KT P6SM VCTS SCT050CB BKN100
     FM010200 13008KT P6SM SCT040 BKN080
     FM010500 VRB06KT P6SM SCT070 SCT120=



000
FTUS45 KPUB 311720
TAFPUB
TAF
KPUB 311720Z 3118/0118 09007KT P6SM FEW060 SCT120
     FM312200 10010KT P6SM VCTS SCT060CB BKN120
     FM010200 10007KT P6SM SCT060 BKN120
     FM010600 VRB04KT P6SM FEW040 SCT120=



000
FTUS45 KPUB 311720
TAFCOS
TAF
KCOS 311720Z 3118/0118 15007KT P6SM FEW060 SCT100
     FM312100 16012KT P6SM VCTS SCT050CB BKN100
     FM010200 13008KT P6SM SCT040 BKN080
     FM010500 VRB06KT P6SM SCT070 SCT120=



000
FTUS45 KPUB 311720
TAFALS
TAF
KALS 311720Z 3118/0118 VRB05KT P6SM SCT120 BKN150
     FM312000 18012KT P6SM VCTS SCT060CB BKN100
     FM010200 12008KT P6SM SCT060 BKN080
     FM010500 VRB05KT P6SM FEW050 SCT150=



000
FTUS45 KPUB 311720
TAFALS
TAF
KALS 311720Z 3118/0118 VRB05KT P6SM SCT120 BKN150
     FM312000 18012KT P6SM VCTS SCT060CB BKN100
     FM010200 12008KT P6SM SCT060 BKN080
     FM010500 VRB05KT P6SM FEW050 SCT150=



000
FTUS45 KPUB 311720
TAFPUB
TAF
KPUB 311720Z 3118/0118 09007KT P6SM FEW060 SCT120
     FM312200 10010KT P6SM VCTS SCT060CB BKN120
     FM010200 10007KT P6SM SCT060 BKN120
     FM010600 VRB04KT P6SM FEW040 SCT120=



000
FTUS45 KPUB 311120
TAFALS
TAF
KALS 311120Z 3112/0112 VRB05KT P6SM SCT150
     FM311900 12012KT P6SM VCTS SCT050CB BKN070
     FM010200 13008KT P6SM SCT050 BKN100
     FM010500 VRB05KT P6SM FEW050 SCT130=



000
FTUS45 KPUB 311120
TAFALS
TAF
KALS 311120Z 3112/0112 VRB05KT P6SM SCT150
     FM311900 12012KT P6SM VCTS SCT050CB BKN070
     FM010200 13008KT P6SM SCT050 BKN100
     FM010500 VRB05KT P6SM FEW050 SCT130=



000
FTUS45 KPUB 311120
TAFCOS
TAF
KCOS 311120Z 3112/0112 01006KT P6SM SCT250
     FM311500 15008KT P6SM FEW100 SCT150
     FM312200 15012KT P6SM VCTS SCT040CB BKN080
     FM010200 12008KT P6SM SCT040 BKN080
     FM010500 08006KT P6SM SCT070 BKN130=



000
FTUS45 KPUB 311120
TAFPUB
TAF
KPUB 311120Z 3112/0112 34007KT P6SM SCT200
     FM311500 11008KT P6SM FEW100 SCT200
     FM312200 12011KT P6SM VCTS SCT060CB BKN120
     FM010200 10007KT P6SM SCT060 BKN120
     FM010600 VRB04KT P6SM FEW040 BKN120=



000
FTUS45 KPUB 311120
TAFPUB
TAF
KPUB 311120Z 3112/0112 34007KT P6SM SCT200
     FM311500 11008KT P6SM FEW100 SCT200
     FM312200 12011KT P6SM VCTS SCT060CB BKN120
     FM010200 10007KT P6SM SCT060 BKN120
     FM010600 VRB04KT P6SM FEW040 BKN120=



000
FTUS45 KPUB 311120
TAFCOS
TAF
KCOS 311120Z 3112/0112 01006KT P6SM SCT250
     FM311500 15008KT P6SM FEW100 SCT150
     FM312200 15012KT P6SM VCTS SCT040CB BKN080
     FM010200 12008KT P6SM SCT040 BKN080
     FM010500 08006KT P6SM SCT070 BKN130=



000
FTUS45 KPUB 311005 AAB
TAFPUB
TAF AMD
KPUB 311005Z 3110/0106 36007KT P6SM FEW200
     FM311500 11008KT P6SM FEW070 BKN150
     FM312100 13012KT P6SM VCTS SCT080CB BKN150
     FM010200 12008KT P6SM SCT090 BKN150=



000
FTUS45 KPUB 311005 AAB
TAFPUB
TAF AMD
KPUB 311005Z 3110/0106 36007KT P6SM FEW200
     FM311500 11008KT P6SM FEW070 BKN150
     FM312100 13012KT P6SM VCTS SCT080CB BKN150
     FM010200 12008KT P6SM SCT090 BKN150=



000
FTUS45 KPUB 311004 AAA
TAFALS
TAF AMD
KALS 311004Z 3110/0106 VRB06KT P6SM FEW090 SCT150
     FM311900 17010KT P6SM VCTS SCT070CB BKN120
     FM010200 13008KT P6SM BKN100=



000
FTUS45 KPUB 311004 AAA
TAFALS
TAF AMD
KALS 311004Z 3110/0106 VRB06KT P6SM FEW090 SCT150
     FM311900 17010KT P6SM VCTS SCT070CB BKN120
     FM010200 13008KT P6SM BKN100=



000
FTUS45 KPUB 311004 AAA
TAFALS
TAF AMD
KALS 311004Z 3110/0106 VRB06KT P6SM FEW090 SCT150
     FM311900 17010KT P6SM VCTS SCT070CB BKN120
     FM010200 13008KT P6SM BKN100=



000
FTUS45 KPUB 311004 AAA
TAFCOS
TAF AMD
KCOS 311004Z 3110/0106 01006KT P6SM SCT250
     FM311500 15008KT P6SM SCT080
     FM311900 17012KT P6SM VCTS SCT060CB BKN140
     FM010200 12006KT P6SM SCT080 BKN140=



000
FTUS45 KPUB 311004 AAA
TAFCOS
TAF AMD
KCOS 311004Z 3110/0106 01006KT P6SM SCT250
     FM311500 15008KT P6SM SCT080
     FM311900 17012KT P6SM VCTS SCT060CB BKN140
     FM010200 12006KT P6SM SCT080 BKN140=



000
FTUS45 KPUB 311004 AAA
TAFCOS
TAF AMD
KCOS 311004Z 3110/0106 01006KT P6SM SCT250
     FM311500 15008KT P6SM SCT080
     FM311900 17012KT P6SM VCTS SCT060CB BKN140
     FM010200 12006KT P6SM SCT080 BKN140=



000
FTUS45 KPUB 310529
TAFPUB
TAF
KPUB 310529Z 3106/0106 10008KT P6SM BKN200
     FM311000 03007KT 5SM BR FEW020 SCT150
     FM311500 11008KT P6SM FEW070 BKN150
     FM312100 13012KT P6SM VCTS SCT080CB BKN150
     FM010200 12008KT P6SM SCT090 BKN150=



000
FTUS45 KPUB 310529
TAFALS
TAF
KALS 310529Z 3106/0106 16006KT P6SM BKN100
     FM311000 VRB03KT 5SM BR FEW005
     FM311900 17010KT P6SM VCTS SCT070CB BKN120
     FM010200 13008KT P6SM BKN100=



000
FTUS45 KPUB 310529
TAFCOS
TAF
KCOS 310529Z 3106/0106 07006KT P6SM SCT140
     FM311000 03006KT 5SM BR FEW010 SCT140
     FM311500 15008KT P6SM SCT080
     FM311900 17012KT P6SM VCTS SCT060CB BKN140
     FM010200 12006KT P6SM SCT080 BKN140=



000
FTUS45 KPUB 310529
TAFCOS
TAF
KCOS 310529Z 3106/0106 07006KT P6SM SCT140
     FM311000 03006KT 5SM BR FEW010 SCT140
     FM311500 15008KT P6SM SCT080
     FM311900 17012KT P6SM VCTS SCT060CB BKN140
     FM010200 12006KT P6SM SCT080 BKN140=



000
FTUS45 KPUB 310529
TAFPUB
TAF
KPUB 310529Z 3106/0106 10008KT P6SM BKN200
     FM311000 03007KT 5SM BR FEW020 SCT150
     FM311500 11008KT P6SM FEW070 BKN150
     FM312100 13012KT P6SM VCTS SCT080CB BKN150
     FM010200 12008KT P6SM SCT090 BKN150=



000
FTUS45 KPUB 310529
TAFALS
TAF
KALS 310529Z 3106/0106 16006KT P6SM BKN100
     FM311000 VRB03KT 5SM BR FEW005
     FM311900 17010KT P6SM VCTS SCT070CB BKN120
     FM010200 13008KT P6SM BKN100=



000
FTUS45 KPUB 310302 AAB
TAFPUB
TAF AMD
KPUB 310302Z 3103/3124 12006KT P6SM BKN200
     FM311000 09006KT P6SM SCT030
     FM311500 06006KT P6SM FEW070
     FM311900 11008KT P6SM VCTS SCT080CB BKN140=



000
FTUS45 KPUB 310302 AAB
TAFPUB
TAF AMD
KPUB 310302Z 3103/3124 12006KT P6SM BKN200
     FM311000 09006KT P6SM SCT030
     FM311500 06006KT P6SM FEW070
     FM311900 11008KT P6SM VCTS SCT080CB BKN140=



000
FTUS45 KPUB 310302 AAB
TAFPUB
TAF AMD
KPUB 310302Z 3103/3124 12006KT P6SM BKN200
     FM311000 09006KT P6SM SCT030
     FM311500 06006KT P6SM FEW070
     FM311900 11008KT P6SM VCTS SCT080CB BKN140=



000
FTUS45 KPUB 310302 AAB
TAFPUB
TAF AMD
KPUB 310302Z 3103/3124 12006KT P6SM BKN200
     FM311000 09006KT P6SM SCT030
     FM311500 06006KT P6SM FEW070
     FM311900 11008KT P6SM VCTS SCT080CB BKN140=



000
FTUS45 KPUB 310301 AAA
TAFCOS
TAF AMD
KCOS 310301Z 3103/3124 14006KT P6SM FEW070 SCT140
     FM310500 07007KT P6SM SCT140
     FM311000 01006KT P6SM SCT060 BKN200
     FM311500 15008KT P6SM SCT080
     FM311900 17012KT P6SM VCTS SCT080CB BKN140=



000
FTUS45 KPUB 310053 AAC
TAFPUB
TAF AMD
KPUB 310053Z 3101/3124 12012KT P6SM BKN090 BKN200
     FM310300 03005KT P6SM SCT150
     FM311000 02006KT P6SM SCT030
     FM311500 06006KT P6SM FEW070
     FM311900 11008KT P6SM VCTS SCT080CB BKN140=



000
FTUS45 KPUB 310053 AAC
TAFPUB
TAF AMD
KPUB 310053Z 3101/3124 12012KT P6SM BKN090 BKN200
     FM310300 03005KT P6SM SCT150
     FM311000 02006KT P6SM SCT030
     FM311500 06006KT P6SM FEW070
     FM311900 11008KT P6SM VCTS SCT080CB BKN140=



000
FTUS45 KPUB 310029 AAB
TAFPUB
TAF AMD
KPUB 310029Z 3100/3124 05012KT P6SM BKN090 BKN200
     FM310100 09012KT P6SM SCT070 BKN200
     FM310300 03005KT P6SM SCT150
     FM311000 02006KT P6SM SCT030
     FM311500 06006KT P6SM FEW070
     FM311900 11008KT P6SM VCTS SCT080CB BKN140=



000
FTUS45 KPUB 310029 AAB
TAFPUB
TAF AMD
KPUB 310029Z 3100/3124 05012KT P6SM BKN090 BKN200
     FM310100 09012KT P6SM SCT070 BKN200
     FM310300 03005KT P6SM SCT150
     FM311000 02006KT P6SM SCT030
     FM311500 06006KT P6SM FEW070
     FM311900 11008KT P6SM VCTS SCT080CB BKN140=



000
FTUS45 KPUB 302335 AAA
TAFPUB
TAF AMD
KPUB 302335Z 3100/3124 02011G16KT 4SM TSRA BKN070CB BKN200
     FM310100 09012KT P6SM SCT070 BKN200
     FM310300 03005KT P6SM SCT150
     FM311000 02006KT P6SM SCT030
     FM311500 06006KT P6SM FEW070
     FM311900 11008KT P6SM VCTS SCT080CB BKN140=



000
FTUS45 KPUB 302335 AAA
TAFPUB
TAF AMD
KPUB 302335Z 3100/3124 02011G16KT 4SM TSRA BKN070CB BKN200
     FM310100 09012KT P6SM SCT070 BKN200
     FM310300 03005KT P6SM SCT150
     FM311000 02006KT P6SM SCT030
     FM311500 06006KT P6SM FEW070
     FM311900 11008KT P6SM VCTS SCT080CB BKN140=



000
FTUS45 KPUB 302334
TAFCOS
TAF
KCOS 302334Z 3100/3124 09011KT P6SM SCT070 BKN120
     FM310500 07007KT P6SM SCT120 BKN200
     FM311000 01006KT P6SM SCT060 BKN200
     FM311500 15008KT P6SM SCT080
     FM311900 17012KT P6SM VCTS SCT080CB BKN140=



000
FTUS45 KPUB 302334
TAFPUB
TAF
KPUB 302334Z 3100/3124 02011G16KT P6SM 4TSRA BKN070CB BKN200
     FM310100 09012KT P6SM SCT070 BKN200
     FM310300 03005KT P6SM SCT150
     FM311000 02006KT P6SM SCT030
     FM311500 06006KT P6SM FEW070
     FM311900 11008KT P6SM VCTS SCT080CB BKN140=



000
FTUS45 KPUB 302334
TAFALS
TAF
KALS 302334Z 3100/3124 12012KT P6SM SCT080 BKN120
     FM310300 VRB06KT P6SM FEW080 BKN120
     FM311900 17010KT P6SM VCTS SCT080CB BKN120=



000
FTUS45 KPUB 302334
TAFCOS
TAF
KCOS 302334Z 3100/3124 09011KT P6SM SCT070 BKN120
     FM310500 07007KT P6SM SCT120 BKN200
     FM311000 01006KT P6SM SCT060 BKN200
     FM311500 15008KT P6SM SCT080
     FM311900 17012KT P6SM VCTS SCT080CB BKN140=



000
FTUS45 KPUB 302334
TAFPUB
TAF
KPUB 302334Z 3100/3124 02011G16KT P6SM 4TSRA BKN070CB BKN200
     FM310100 09012KT P6SM SCT070 BKN200
     FM310300 03005KT P6SM SCT150
     FM311000 02006KT P6SM SCT030
     FM311500 06006KT P6SM FEW070
     FM311900 11008KT P6SM VCTS SCT080CB BKN140=



000
FTUS45 KPUB 302334
TAFALS
TAF
KALS 302334Z 3100/3124 12012KT P6SM SCT080 BKN120
     FM310300 VRB06KT P6SM FEW080 BKN120
     FM311900 17010KT P6SM VCTS SCT080CB BKN120=



000
FTUS45 KPUB 302334
TAFCOS
TAF
KCOS 302334Z 3100/3124 09011KT P6SM SCT070 BKN120
     FM310500 07007KT P6SM SCT120 BKN200
     FM311000 01006KT P6SM SCT060 BKN200
     FM311500 15008KT P6SM SCT080
     FM311900 17012KT P6SM VCTS SCT080CB BKN140=



000
FTUS45 KPUB 302334
TAFPUB
TAF
KPUB 302334Z 3100/3124 02011G16KT P6SM 4TSRA BKN070CB BKN200
     FM310100 09012KT P6SM SCT070 BKN200
     FM310300 03005KT P6SM SCT150
     FM311000 02006KT P6SM SCT030
     FM311500 06006KT P6SM FEW070
     FM311900 11008KT P6SM VCTS SCT080CB BKN140=



000
FTUS45 KPUB 302334
TAFCOS
TAF
KCOS 302334Z 3100/3124 09011KT P6SM SCT070 BKN120
     FM310500 07007KT P6SM SCT120 BKN200
     FM311000 01006KT P6SM SCT060 BKN200
     FM311500 15008KT P6SM SCT080
     FM311900 17012KT P6SM VCTS SCT080CB BKN140=



000
FTUS45 KPUB 302334
TAFALS
TAF
KALS 302334Z 3100/3124 12012KT P6SM SCT080 BKN120
     FM310300 VRB06KT P6SM FEW080 BKN120
     FM311900 17010KT P6SM VCTS SCT080CB BKN120=



000
FTUS45 KPUB 302334
TAFPUB
TAF
KPUB 302334Z 3100/3124 02011G16KT P6SM 4TSRA BKN070CB BKN200
     FM310100 09012KT P6SM SCT070 BKN200
     FM310300 03005KT P6SM SCT150
     FM311000 02006KT P6SM SCT030
     FM311500 06006KT P6SM FEW070
     FM311900 11008KT P6SM VCTS SCT080CB BKN140=



000
FTUS45 KPUB 302334
TAFALS
TAF
KALS 302334Z 3100/3124 12012KT P6SM SCT080 BKN120
     FM310300 VRB06KT P6SM FEW080 BKN120
     FM311900 17010KT P6SM VCTS SCT080CB BKN120=



000
FTUS45 KPUB 301732
TAFPUB
TAF
KPUB 301732Z 3018/3118 12007KT P6SM SCT070 SCT150 SCT200
     FM302100 12011KT P6SM VCTS SCT070CB SCT140 BKN200
     FM310000 09010KT P6SM SCT070 BKN150
     FM310300 03005KT P6SM SCT150
     FM311000 02010KT P6SM BKN040=



000
FTUS45 KPUB 301732
TAFALS
TAF
KALS 301732Z 3018/3118 27006KT P6SM FEW080 SCT150
     FM301900 15012KT P6SM VCTS SCT070CB BKN150
      TEMPO 3020/3023 VRB15G30KT -TSRA BKN070CB
     FM310300 13007KT P6SM SCT080 BKN150
     FM310600 VRB06KT P6SM SCT060 BKN150=



000
FTUS45 KPUB 301732
TAFCOS
TAF
KCOS 301732Z 3018/3118 12007KT P6SM VCTS SCT060CB SCT140 SCT200
     FM301900 13011KT P6SM VCTS SCT060CB BKN140
      TEMPO 3019/3023 VRB15G30KT -TSRA BKN060CB
     FM310200 11007KT P6SM SCT070 BKN140
     FM310500 07007KT P6SM SCT140 BKN200
     FM311000 01006KT P6SM SCT010 SCT060 BKN200=



000
FTUS45 KPUB 301732
TAFALS
TAF
KALS 301732Z 3018/3118 27006KT P6SM FEW080 SCT150
     FM301900 15012KT P6SM VCTS SCT070CB BKN150
      TEMPO 3020/3023 VRB15G30KT -TSRA BKN070CB
     FM310300 13007KT P6SM SCT080 BKN150
     FM310600 VRB06KT P6SM SCT060 BKN150=



000
FTUS45 KPUB 301732
TAFPUB
TAF
KPUB 301732Z 3018/3118 12007KT P6SM SCT070 SCT150 SCT200
     FM302100 12011KT P6SM VCTS SCT070CB SCT140 BKN200
     FM310000 09010KT P6SM SCT070 BKN150
     FM310300 03005KT P6SM SCT150
     FM311000 02010KT P6SM BKN040=



000
FTUS45 KPUB 301732
TAFCOS
TAF
KCOS 301732Z 3018/3118 12007KT P6SM VCTS SCT060CB SCT140 SCT200
     FM301900 13011KT P6SM VCTS SCT060CB BKN140
      TEMPO 3019/3023 VRB15G30KT -TSRA BKN060CB
     FM310200 11007KT P6SM SCT070 BKN140
     FM310500 07007KT P6SM SCT140 BKN200
     FM311000 01006KT P6SM SCT010 SCT060 BKN200=



000
FTUS45 KPUB 301139
TAFPUB
TAF
KPUB 301139Z 3012/3112 04007KT P6SM SCT080 SCT150
     FM301900 12009KT P6SM SCT080 BKN150
     FM310300 03005KT P6SM SCT150=



000
FTUS45 KPUB 301139
TAFALS
TAF
KALS 301139Z 3012/3112 VRB06KT P6SM BKN150
     FM301400 VRB06KT P6SM FEW080 SCT150
     FM301900 24012KT P6SM VCTS SCT080CB BKN150
     FM310300 VRB06KT P6SM BKN150=



000
FTUS45 KPUB 301139
TAFCOS
TAF
KCOS 301139Z 3012/3112 03005KT P6SM SCT070 SCT150
     FM301500 13006KT P6SM SCT070 SCT150
     FM302000 16009KT P6SM VCTS SCT070CB BKN150
     FM310200 11007KT P6SM SCT070 BKN150
     FM310500 07007KT P6SM SCT150=



000
FTUS45 KPUB 301139
TAFCOS
TAF
KCOS 301139Z 3012/3112 03005KT P6SM SCT070 SCT150
     FM301500 13006KT P6SM SCT070 SCT150
     FM302000 16009KT P6SM VCTS SCT070CB BKN150
     FM310200 11007KT P6SM SCT070 BKN150
     FM310500 07007KT P6SM SCT150=



000
FTUS45 KPUB 301139
TAFPUB
TAF
KPUB 301139Z 3012/3112 04007KT P6SM SCT080 SCT150
     FM301900 12009KT P6SM SCT080 BKN150
     FM310300 03005KT P6SM SCT150=



000
FTUS45 KPUB 301139
TAFALS
TAF
KALS 301139Z 3012/3112 VRB06KT P6SM BKN150
     FM301400 VRB06KT P6SM FEW080 SCT150
     FM301900 24012KT P6SM VCTS SCT080CB BKN150
     FM310300 VRB06KT P6SM BKN150=



000
FTUS45 KPUB 300535
TAFALS
TAF
KALS 300535Z 3006/3106 VRB06KT P6SM BKN150
     FM301400 VRB06KT P6SM FEW080 SCT150
     FM301900 24012KT P6SM VCTS SCT080CB BKN150
     FM310300 VRB06KT P6SM BKN150=



000
FTUS45 KPUB 300535
TAFPUB
TAF
KPUB 300535Z 3006/3106 09007KT P6SM SCT080 BKN150
     FM301100 01007KT P6SM SCT080 SCT150
     FM301900 12009KT P6SM SCT080 BKN150=



000
FTUS45 KPUB 300535
TAFPUB
TAF
KPUB 300535Z 3006/3106 09007KT P6SM SCT080 BKN150
     FM301100 01007KT P6SM SCT080 SCT150
     FM301900 12009KT P6SM SCT080 BKN150=



000
FTUS45 KPUB 300535
TAFCOS
TAF
KCOS 300535Z 3006/3106 13007KT P6SM SCT050 BKN150
     FM301000 05005KT P6SM SCT070 SCT150
     FM302000 16009KT P6SM VCTS SCT070CB BKN150
     FM310200 11007KT P6SM SCT070 BKN150=



000
FTUS45 KPUB 300535
TAFALS
TAF
KALS 300535Z 3006/3106 VRB06KT P6SM BKN150
     FM301400 VRB06KT P6SM FEW080 SCT150
     FM301900 24012KT P6SM VCTS SCT080CB BKN150
     FM310300 VRB06KT P6SM BKN150=



000
FTUS45 KPUB 300535
TAFPUB
TAF
KPUB 300535Z 3006/3106 09007KT P6SM SCT080 BKN150
     FM301100 01007KT P6SM SCT080 SCT150
     FM301900 12009KT P6SM SCT080 BKN150=



000
FTUS45 KPUB 300535
TAFCOS
TAF
KCOS 300535Z 3006/3106 13007KT P6SM SCT050 BKN150
     FM301000 05005KT P6SM SCT070 SCT150
     FM302000 16009KT P6SM VCTS SCT070CB BKN150
     FM310200 11007KT P6SM SCT070 BKN150=



000
FTUS45 KPUB 300535
TAFPUB
TAF
KPUB 300535Z 3006/3106 09007KT P6SM SCT080 BKN150
     FM301100 01007KT P6SM SCT080 SCT150
     FM301900 12009KT P6SM SCT080 BKN150=



000
FTUS45 KPUB 292321
TAFCOS
TAF
KCOS 292321Z 3000/3024 18012KT P6SM SCT070 SCT150
     FM300200 13007KT P6SM SCT070 BKN140
     FM300800 05005KT P6SM SCT070 SCT150
     FM302000 16009KT P6SM VCTS SCT070CB BKN150=



000
FTUS45 KPUB 292321
TAFALS
TAF
KALS 292321Z 3000/3024 11009KT P6SM VCTS SCT080CB BKN200
     FM300200 18008KT P6SM BKN120
     FM300500 VRB06KT P6SM BKN150
     FM301900 24012KT P6SM VCTS SCT080CB BKN150=



000
FTUS45 KPUB 292321
TAFPUB
TAF
KPUB 292321Z 3000/3024 12011KT P6SM FEW080 BKN150
     FM300200 09007KT P6SM SCT080 BKN150
     FM300800 01007KT P6SM SCT080 SCT150
     FM301900 12009KT P6SM SCT080 BKN150=



000
FTUS45 KPUB 292321
TAFPUB
TAF
KPUB 292321Z 3000/3024 12011KT P6SM FEW080 BKN150
     FM300200 09007KT P6SM SCT080 BKN150
     FM300800 01007KT P6SM SCT080 SCT150
     FM301900 12009KT P6SM SCT080 BKN150=



000
FTUS45 KPUB 292321
TAFCOS
TAF
KCOS 292321Z 3000/3024 18012KT P6SM SCT070 SCT150
     FM300200 13007KT P6SM SCT070 BKN140
     FM300800 05005KT P6SM SCT070 SCT150
     FM302000 16009KT P6SM VCTS SCT070CB BKN150=



000
FTUS45 KPUB 292321
TAFALS
TAF
KALS 292321Z 3000/3024 11009KT P6SM VCTS SCT080CB BKN200
     FM300200 18008KT P6SM BKN120
     FM300500 VRB06KT P6SM BKN150
     FM301900 24012KT P6SM VCTS SCT080CB BKN150=



000
FTUS45 KPUB 292202 AAA
TAFALS
TAF AMD
KALS 292202Z 2922/3018 25011KT P6SM VCTS SCT080CB BKN200
     FM300200 18008KT P6SM BKN120
     FM300500 VRB06KT P6SM BKN150=



000
FTUS45 KPUB 292202 AAA
TAFALS
TAF AMD
KALS 292202Z 2922/3018 25011KT P6SM VCTS SCT080CB BKN200
     FM300200 18008KT P6SM BKN120
     FM300500 VRB06KT P6SM BKN150=



000
FTUS45 KPUB 292202 AAA
TAFALS
TAF AMD
KALS 292202Z 2922/3018 25011KT P6SM VCTS SCT080CB BKN200
     FM300200 18008KT P6SM BKN120
     FM300500 VRB06KT P6SM BKN150=



000
FTUS45 KPUB 292202 AAA
TAFALS
TAF AMD
KALS 292202Z 2922/3018 25011KT P6SM VCTS SCT080CB BKN200
     FM300200 18008KT P6SM BKN120
     FM300500 VRB06KT P6SM BKN150=



000
FTUS45 KPUB 292202 AAB
TAFCOS
TAF AMD
KCOS 292202Z 2922/3018 18012KT P6SM SCT050 SCT150
     FM300200 13007KT P6SM SCT060 BKN140
     FM300800 05005KT P6SM SCT050 SCT150=



000
FTUS45 KPUB 292202 AAB
TAFCOS
TAF AMD
KCOS 292202Z 2922/3018 18012KT P6SM SCT050 SCT150
     FM300200 13007KT P6SM SCT060 BKN140
     FM300800 05005KT P6SM SCT050 SCT150=



000
FTUS45 KPUB 291808 AAA
TAFCOS
TAF AMD
KCOS 291808Z 2918/3018 14014G24KT P6SM BKN045
     FM292100 17014KT P6SM SCT050 BKN150
     FM300200 13007KT P6SM SCT060 BKN140
     FM300800 05005KT P6SM SCT050 SCT150=



000
FTUS45 KPUB 291808 AAA
TAFCOS
TAF AMD
KCOS 291808Z 2918/3018 14014G24KT P6SM BKN045
     FM292100 17014KT P6SM SCT050 BKN150
     FM300200 13007KT P6SM SCT060 BKN140
     FM300800 05005KT P6SM SCT050 SCT150=



000
FTUS45 KPUB 291720
TAFCOS
TAF
KCOS 291720Z 2918/3018 14014KT P6SM SCT050 SCT150 BKN200
     FM292100 17014KT P6SM SCT050 BKN150
     FM300200 13007KT P6SM SCT060 BKN140
     FM300800 05005KT P6SM SCT050 SCT150=



000
FTUS45 KPUB 291720
TAFPUB
TAF
KPUB 291720Z 2918/3018 10012G22KT P6SM SCT040 SCT150
     FM292100 12014KT P6SM SCT050 SCT150 BKN200
     FM300200 09007KT P6SM SCT070 BKN150
     FM300800 01007KT P6SM SCT050 SCT150=



000
FTUS45 KPUB 291720
TAFPUB
TAF
KPUB 291720Z 2918/3018 10012G22KT P6SM SCT040 SCT150
     FM292100 12014KT P6SM SCT050 SCT150 BKN200
     FM300200 09007KT P6SM SCT070 BKN150
     FM300800 01007KT P6SM SCT050 SCT150=



000
FTUS45 KPUB 291720
TAFALS
TAF
KALS 291720Z 2918/3018 17008KT P6SM FEW120 BKN200
     FM292100 20014KT P6SM VCTS SCT080CB BKN200
     FM300200 18008KT P6SM BKN120
     FM300500 VRB06KT P6SM BKN150=



000
FTUS45 KPUB 291720
TAFCOS
TAF
KCOS 291720Z 2918/3018 14014KT P6SM SCT050 SCT150 BKN200
     FM292100 17014KT P6SM SCT050 BKN150
     FM300200 13007KT P6SM SCT060 BKN140
     FM300800 05005KT P6SM SCT050 SCT150=



000
FTUS45 KPUB 291720
TAFCOS
TAF
KCOS 291720Z 2918/3018 14014KT P6SM SCT050 SCT150 BKN200
     FM292100 17014KT P6SM SCT050 BKN150
     FM300200 13007KT P6SM SCT060 BKN140
     FM300800 05005KT P6SM SCT050 SCT150=



000
FTUS45 KPUB 291720
TAFALS
TAF
KALS 291720Z 2918/3018 17008KT P6SM FEW120 BKN200
     FM292100 20014KT P6SM VCTS SCT080CB BKN200
     FM300200 18008KT P6SM BKN120
     FM300500 VRB06KT P6SM BKN150=



000
FTUS45 KPUB 291720
TAFCOS
TAF
KCOS 291720Z 2918/3018 14014KT P6SM SCT050 SCT150 BKN200
     FM292100 17014KT P6SM SCT050 BKN150
     FM300200 13007KT P6SM SCT060 BKN140
     FM300800 05005KT P6SM SCT050 SCT150=



000
FTUS45 KPUB 291720
TAFALS
TAF
KALS 291720Z 2918/3018 17008KT P6SM FEW120 BKN200
     FM292100 20014KT P6SM VCTS SCT080CB BKN200
     FM300200 18008KT P6SM BKN120
     FM300500 VRB06KT P6SM BKN150=



000
FTUS45 KPUB 291720
TAFALS
TAF
KALS 291720Z 2918/3018 17008KT P6SM FEW120 BKN200
     FM292100 20014KT P6SM VCTS SCT080CB BKN200
     FM300200 18008KT P6SM BKN120
     FM300500 VRB06KT P6SM BKN150=



000
FTUS45 KPUB 291720
TAFPUB
TAF
KPUB 291720Z 2918/3018 10012G22KT P6SM SCT040 SCT150
     FM292100 12014KT P6SM SCT050 SCT150 BKN200
     FM300200 09007KT P6SM SCT070 BKN150
     FM300800 01007KT P6SM SCT050 SCT150=



000
FTUS45 KPUB 291720
TAFPUB
TAF
KPUB 291720Z 2918/3018 10012G22KT P6SM SCT040 SCT150
     FM292100 12014KT P6SM SCT050 SCT150 BKN200
     FM300200 09007KT P6SM SCT070 BKN150
     FM300800 01007KT P6SM SCT050 SCT150=



    US Dept of Commerce
    National Oceanic and Atmospheric Administration
    National Weather Service
    1325 East West Highway
    Silver Spring, MD 20910
    Page Author: NWS Internet Services Team
Disclaimer
Information Quality
Credits
Glossary
Privacy Policy
Freedom of Information Act (FOIA)
About Us
Career Opportunities